Time;durP1;ratioP1;P1;durP2;ratioP2;P2;SDS_P1;SDS_P2;PMS_P1;PMS_P2;Temp;Humidity;BMP_temperature;BMP_pressure;BME280_temperature;BME280_humidity;BME280_pressure;Samples;Min_cycle;Max_cycle;Signal;HPM_P1;HPM_P2
2024/03/04 00:00:22;;;;;;;13.60;10.27;;;;;;;-146.29;100.00;59205.81;5029223;28;20749;-69
2024/03/04 00:02:48;;;;;;;14.73;9.70;;;;;;;-146.29;100.00;59205.81;5029605;28;20226;-70
2024/03/04 00:05:13;;;;;;;16.00;10.13;;;;;;;-146.29;100.00;59205.81;5036532;28;20259;-69
2024/03/04 00:07:39;;;;;;;17.13;10.47;;;;;;;-146.29;100.00;59205.81;5029715;28;20179;-70
2024/03/04 00:10:07;;;;;;;13.93;9.03;;;;;;;-146.29;100.00;59205.81;5029094;28;20184;-68
2024/03/04 00:12:32;;;;;;;12.57;9.73;;;;;;;-146.29;100.00;59205.81;5052556;28;20191;-70
2024/03/04 00:14:58;;;;;;;13.90;9.47;;;;;;;-146.29;100.00;59205.81;5035077;28;20945;-70
2024/03/04 00:17:24;;;;;;;13.27;9.77;;;;;;;-146.29;100.00;59205.81;5030282;28;20263;-69
2024/03/04 00:19:50;;;;;;;20.70;9.83;;;;;;;-146.29;100.00;59205.81;5030456;28;20171;-69
2024/03/04 00:22:15;;;;;;;14.70;10.10;;;;;;;-146.29;100.00;59205.81;5028942;28;20458;-70
2024/03/04 00:24:41;;;;;;;20.13;11.63;;;;;;;-146.29;100.00;59205.81;5028064;28;20714;-70
2024/03/04 00:27:06;;;;;;;20.07;11.97;;;;;;;-146.29;100.00;59205.81;5029154;28;20186;-71
2024/03/04 00:29:32;;;;;;;21.03;11.90;;;;;;;-146.29;100.00;59205.81;5035893;28;20685;-69
2024/03/04 00:31:58;;;;;;;17.50;11.90;;;;;;;-146.29;100.00;59205.81;5033510;28;20622;-71
2024/03/04 00:34:23;;;;;;;15.10;11.60;;;;;;;-146.29;100.00;59205.81;5028775;28;20191;-69
2024/03/04 00:36:48;;;;;;;16.20;11.50;;;;;;;-146.29;100.00;59205.81;5028533;28;20172;-72
2024/03/04 00:39:14;;;;;;;17.40;11.10;;;;;;;-146.29;100.00;59205.81;5028701;28;20279;-71
2024/03/04 00:41:40;;;;;;;17.43;12.10;;;;;;;-146.29;100.00;59205.81;5027642;28;20882;-70
2024/03/04 00:44:05;;;;;;;15.50;11.90;;;;;;;-146.29;100.00;59205.81;5029694;28;20184;-70
2024/03/04 00:46:31;;;;;;;14.50;11.30;;;;;;;-146.29;100.00;59205.81;5040378;28;20254;-70
2024/03/04 00:48:56;;;;;;;16.17;11.77;;;;;;;-146.29;100.00;59205.81;5028752;28;20184;-71
2024/03/04 00:51:22;;;;;;;16.30;12.30;;;;;;;-146.29;100.00;59205.81;5028687;28;20234;-71
2024/03/04 00:53:47;;;;;;;16.77;11.67;;;;;;;-146.29;100.00;59205.81;5041218;28;20176;-73
2024/03/04 00:56:14;;;;;;;16.70;12.10;;;;;;;-146.29;100.00;59205.81;5032035;28;20176;-70
2024/03/04 00:58:42;;;;;;;15.73;11.47;;;;;;;-146.29;100.00;59205.81;5036858;28;20192;-70
2024/03/04 01:01:08;;;;;;;15.50;11.20;;;;;;;-146.29;100.00;59205.81;5035471;28;20497;-73
2024/03/04 01:03:34;;;;;;;15.77;11.57;;;;;;;-146.29;100.00;59205.81;5027832;28;20839;-71
2024/03/04 01:05:59;;;;;;;17.10;11.70;;;;;;;-146.29;100.00;59205.81;5029016;28;20908;-71
2024/03/04 01:08:28;;;;;;;19.00;11.53;;;;;;;-146.29;100.00;59205.81;5028929;28;20746;-69
2024/03/04 01:10:54;;;;;;;21.07;11.77;;;;;;;-146.29;100.00;59205.81;5036845;28;20257;-71
2024/03/04 01:13:21;;;;;;;16.40;11.90;;;;;;;-146.29;100.00;59205.81;5028633;28;20509;-71
2024/03/04 01:15:53;;;;;;;19.63;12.40;;;;;;;12.99;50.53;96196.91;5069575;28;21173;-71
2024/03/04 01:18:20;;;;;;;15.90;11.63;;;;;;;12.82;50.91;96187.72;5055629;28;20518;-70
2024/03/04 01:20:45;;;;;;;19.43;12.33;;;;;;;12.82;51.08;96206.13;5041908;28;20231;-71
2024/03/04 01:23:11;;;;;;;19.53;12.40;;;;;;;12.80;50.90;96213.38;5045959;28;20470;-70
2024/03/04 01:25:37;;;;;;;16.57;12.03;;;;;;;12.75;51.12;96211.31;5037099;28;20780;-72
2024/03/04 01:28:03;;;;;;;17.53;12.20;;;;;;;12.78;50.85;96216.22;5049502;28;20282;-69
2024/03/04 01:30:28;;;;;;;17.47;12.77;;;;;;;12.83;51.01;96228.78;5044004;28;20482;-69
2024/03/04 01:32:56;;;;;;;16.17;11.30;;;;;;;12.65;50.71;96230.03;5049518;28;20270;-71
2024/03/04 01:35:23;;;;;;;18.03;10.63;;;;;;;12.70;51.17;96232.94;5047767;28;20206;-70
2024/03/04 01:37:48;;;;;;;16.90;12.10;;;;;;;12.72;51.47;96233.56;5044605;28;20971;-71
2024/03/04 01:40:14;;;;;;;18.50;11.60;;;;;;;12.81;50.98;96238.66;5044685;28;20440;-71
2024/03/04 01:42:41;;;;;;;20.03;12.77;;;;;;;12.84;50.77;96233.84;5045320;28;20239;-71
2024/03/04 01:45:24;;;;;;;16.53;11.53;;;;;;;12.82;50.73;96232.41;5054343;28;20184;-69
2024/03/04 01:47:56;;;;;;;17.83;12.17;;;;;;;12.69;50.93;96244.44;5025100;28;20495;-70
2024/03/04 01:50:25;;;;;;;15.50;11.00;;;;;;;12.73;50.92;96239.63;5041157;28;20499;-71
2024/03/04 01:52:52;;;;;;;18.67;11.97;;;;;;;12.79;50.66;96244.09;5032951;28;20480;-70
2024/03/04 01:55:19;;;;;;;14.83;10.90;;;;;;;12.80;50.98;96252.81;5040750;28;20525;-70
2024/03/04 01:57:47;;;;;;;18.63;12.50;;;;;;;12.84;50.82;96259.34;5037527;28;20527;-69
2024/03/04 02:00:13;;;;;;;19.47;11.50;;;;;;;12.78;50.87;96257.44;5042756;28;20786;-70
2024/03/04 02:02:42;;;;;;;14.30;10.70;;;;;;;12.71;50.80;96265.28;5051291;28;20961;-70
2024/03/04 02:05:14;;;;;;;14.40;10.20;;;;;;;12.70;50.61;96261.84;5042543;28;20508;-70
2024/03/04 02:07:39;;;;;;;16.73;11.87;;;;;;;12.66;50.71;96268.47;5054962;28;20428;-70
2024/03/04 02:10:06;;;;;;;18.97;11.47;;;;;;;12.63;51.14;96279.34;5045828;28;20429;-70
2024/03/04 02:12:35;;;;;;;15.17;11.40;;;;;;;12.67;51.18;96280.63;5043401;28;20215;-70
2024/03/04 02:15:01;;;;;;;19.37;12.47;;;;;;;12.67;51.37;96274.53;5042251;28;20485;-70
2024/03/04 02:17:30;;;;;;;14.87;10.40;;;;;;;12.63;51.25;96271.47;5043850;28;20468;-71
2024/03/04 02:20:18;;;;;;;16.20;10.97;;;;;;;12.62;51.15;96280.34;5043830;28;20199;-70
2024/03/04 02:22:43;;;;;;;15.70;11.20;;;;;;;12.58;51.09;96277.28;5050492;28;20514;-68
2024/03/04 02:25:12;;;;;;;16.50;12.00;;;;;;;12.59;51.29;96281.56;5048944;28;20875;-70
2024/03/04 02:27:42;;;;;;;17.57;12.07;;;;;;;12.58;50.90;96276.50;5037520;28;20215;-69
2024/03/04 02:30:08;;;;;;;20.97;13.20;;;;;;;12.57;51.27;96278.28;5029995;28;20501;-69
2024/03/04 02:32:34;;;;;;;22.43;12.13;;;;;;;12.55;51.14;96285.53;5030338;28;21003;-70
2024/03/04 02:35:03;;;;;;;19.17;12.53;;;;;;;12.54;51.07;96285.75;5009458;28;20467;-71
2024/03/04 02:37:31;;;;;;;16.83;11.60;;;;;;;12.44;51.46;96293.94;5026767;28;20869;-68
2024/03/04 02:39:57;;;;;;;16.80;10.90;;;;;;;12.44;51.38;96310.53;5037083;28;20426;-70
2024/03/04 02:42:22;;;;;;;16.20;10.47;;;;;;;12.42;50.96;96317.78;5028774;28;20455;-71
2024/03/04 02:44:48;;;;;;;15.97;11.50;;;;;;;12.39;51.19;96314.72;5033231;28;20210;-70
2024/03/04 02:47:14;;;;;;;18.20;11.63;;;;;;;12.40;51.34;96319.75;5034866;28;20219;-70
2024/03/04 02:49:40;;;;;;;13.53;10.03;;;;;;;12.41;51.32;96320.59;5032335;28;20188;-70
2024/03/04 02:52:05;;;;;;;19.07;11.00;;;;;;;12.36;51.49;96308.00;5025982;28;20486;-72
2024/03/04 02:54:31;;;;;;;14.93;10.10;;;;;;;12.30;50.93;96314.00;5049876;28;20238;-69
2024/03/04 02:56:56;;;;;;;12.90;10.70;;;;;;;12.24;51.72;96314.72;5037868;28;20192;-69
2024/03/04 02:59:22;;;;;;;14.80;10.33;;;;;;;12.20;51.32;96311.66;5033432;28;20671;-70
2024/03/04 03:01:48;;;;;;;13.90;10.57;;;;;;;12.09;51.60;96323.47;5040062;28;20207;-70
2024/03/04 03:04:15;;;;;;;12.70;10.30;;;;;;;12.13;51.53;96314.19;5033786;28;20649;-69
2024/03/04 03:06:42;;;;;;;14.67;10.73;;;;;;;12.05;51.75;96314.31;5027968;28;20438;-70
2024/03/04 03:09:14;;;;;;;19.17;11.10;;;;;;;12.05;51.75;96319.56;5030138;28;20426;-69
2024/03/04 03:11:40;;;;;;;14.13;10.50;;;;;;;12.09;51.91;96328.72;5028181;28;20447;-69
2024/03/04 03:14:05;;;;;;;14.43;10.73;;;;;;;12.08;51.70;96340.22;5029568;28;20843;-70
2024/03/04 03:16:31;;;;;;;13.40;9.53;;;;;;;12.05;51.47;96337.94;5038099;28;20434;-70
2024/03/04 03:18:56;;;;;;;14.83;10.30;;;;;;;12.01;52.04;96341.13;5029438;28;20275;-71
2024/03/04 03:21:22;;;;;;;17.60;11.50;;;;;;;11.89;51.86;96338.09;5029043;28;20207;-70
2024/03/04 03:23:50;;;;;;;14.30;11.00;;;;;;;11.92;52.17;96345.63;5031499;28;20206;-69
2024/03/04 03:26:16;;;;;;;13.27;9.70;;;;;;;12.00;51.85;96357.88;5029633;28;20433;-69
2024/03/04 03:28:42;;;;;;;15.97;10.10;;;;;;;12.04;51.79;96362.56;5030152;28;20446;-70
2024/03/04 03:31:07;;;;;;;14.73;10.20;;;;;;;11.98;51.62;96368.53;5034467;28;20290;-69
2024/03/04 03:33:33;;;;;;;14.77;10.20;;;;;;;11.75;52.33;96373.88;5029834;28;20513;-70
2024/03/04 03:35:59;;;;;;;16.33;10.20;;;;;;;11.72;52.20;96385.53;5028821;28;20812;-70
2024/03/04 03:38:24;;;;;;;17.60;11.00;;;;;;;11.75;52.23;96387.78;5034520;28;20549;-70
2024/03/04 03:40:50;;;;;;;14.67;10.97;;;;;;;11.80;52.38;96384.63;5021696;28;20226;-71
2024/03/04 03:43:17;;;;;;;14.30;10.17;;;;;;;11.79;52.06;96386.44;5028210;28;20195;-70
2024/03/04 03:45:43;;;;;;;14.60;9.30;;;;;;;11.83;51.91;96390.34;5029774;28;20314;-71
2024/03/04 03:48:09;;;;;;;14.43;9.73;;;;;;;11.87;52.29;96389.97;5035535;28;20450;-69
2024/03/04 03:50:35;;;;;;;13.20;9.87;;;;;;;11.89;51.47;96406.38;5034715;28;20651;-70
2024/03/04 03:53:00;;;;;;;14.40;9.87;;;;;;;11.82;52.03;96406.25;5028587;28;20469;-69
2024/03/04 03:55:26;;;;;;;13.00;9.43;;;;;;;11.87;51.86;96409.19;5032777;28;20200;-72
2024/03/04 03:57:51;;;;;;;14.40;9.97;;;;;;;11.87;52.31;96410.97;5032307;28;20221;-70
2024/03/04 04:00:18;;;;;;;15.00;10.60;;;;;;;11.93;52.04;96423.41;5028888;28;20229;-70
2024/03/04 04:02:43;;;;;;;16.20;10.50;;;;;;;11.96;52.32;96423.84;5028353;28;20208;-70
2024/03/04 04:05:08;;;;;;;14.87;10.67;;;;;;;11.98;52.15;96437.66;5028762;28;20479;-69
2024/03/04 04:07:34;;;;;;;16.40;11.20;;;;;;;12.03;52.05;96444.97;5028598;28;20267;-71
2024/03/04 04:09:59;;;;;;;17.70;11.07;;;;;;;11.99;52.71;96441.06;5028619;28;20573;-70
2024/03/04 04:12:25;;;;;;;15.80;10.40;;;;;;;11.98;52.31;96448.16;5028248;28;20295;-72
2024/03/04 04:14:51;;;;;;;13.93;10.50;;;;;;;11.92;52.58;96440.94;5040215;28;20216;-71
2024/03/04 04:17:16;;;;;;;14.63;10.03;;;;;;;11.98;53.01;96455.19;5030660;28;20588;-70
2024/03/04 04:19:42;;;;;;;13.10;10.60;;;;;;;11.95;52.75;96447.66;5028465;28;20231;-70
2024/03/04 04:22:07;;;;;;;21.23;11.40;;;;;;;11.92;52.84;96458.53;5029449;28;20287;-71
2024/03/04 04:24:37;;;;;;;13.93;9.90;;;;;;;11.95;52.98;96452.91;5028276;28;20211;-70
2024/03/04 04:27:03;;;;;;;20.03;11.40;;;;;;;11.97;53.43;96461.44;5028601;28;20195;-71
2024/03/04 04:29:28;;;;;;;15.40;11.90;;;;;;;11.98;54.29;96463.91;5030501;28;20426;-69
2024/03/04 04:31:55;;;;;;;18.00;12.50;;;;;;;12.02;55.09;96469.59;5037985;28;20235;-71
2024/03/04 04:34:21;;;;;;;19.23;13.60;;;;;;;12.10;55.13;96476.59;5028490;28;20226;-69
2024/03/04 04:36:50;;;;;;;19.53;14.47;;;;;;;12.11;55.49;96468.53;5035912;28;20816;-70
2024/03/04 04:39:15;;;;;;;38.33;21.40;;;;;;;12.21;55.38;96475.34;5028705;28;20190;-70
2024/03/04 04:41:40;;;;;;;24.33;16.30;;;;;;;12.28;56.10;96487.59;5028123;28;20538;-71
2024/03/04 04:44:06;;;;;;;23.33;15.50;;;;;;;12.38;56.06;96489.13;5028360;28;20650;-70
2024/03/04 04:46:32;;;;;;;23.03;16.23;;;;;;;12.39;55.51;96491.56;5029410;28;20671;-70
2024/03/04 04:48:57;;;;;;;21.33;15.80;;;;;;;12.38;56.04;96494.38;5021586;28;20267;-69
2024/03/04 04:51:23;;;;;;;28.20;17.80;;;;;;;12.36;56.40;96499.78;5019924;28;20204;-70
2024/03/04 04:53:48;;;;;;;23.67;15.97;;;;;;;12.39;56.65;96499.44;5010539;28;20206;-70
2024/03/04 04:56:17;;;;;;;23.40;17.10;;;;;;;12.44;56.30;96491.00;5023982;28;20186;-71
2024/03/04 04:58:43;;;;;;;26.10;17.27;;;;;;;12.48;56.59;96504.59;5035501;28;20186;-70
2024/03/04 05:01:08;;;;;;;30.30;18.77;;;;;;;12.52;56.27;96503.25;5025688;28;20814;-71
2024/03/04 05:03:35;;;;;;;27.97;17.60;;;;;;;12.53;56.34;96513.59;5018159;28;20683;-70
2024/03/04 05:06:01;;;;;;;23.37;16.97;;;;;;;12.50;56.46;96513.13;5010128;28;20189;-70
2024/03/04 05:08:27;;;;;;;28.17;17.60;;;;;;;12.55;56.32;96519.47;5026334;28;20493;-71
2024/03/04 05:10:55;;;;;;;27.93;18.07;;;;;;;12.55;56.55;96529.16;5012723;28;20551;-69
2024/03/04 05:13:21;;;;;;;23.17;17.10;;;;;;;12.59;56.88;96533.06;5012555;28;20978;-69
2024/03/04 05:15:46;;;;;;;26.27;17.40;;;;;;;12.63;56.43;96536.94;5028080;28;20545;-70
2024/03/04 05:18:12;;;;;;;26.83;18.27;;;;;;;12.64;56.45;96541.22;5013805;28;20183;-70
2024/03/04 05:20:38;;;;;;;22.70;16.63;;;;;;;12.68;55.98;96553.00;5019186;28;20208;-70
2024/03/04 05:23:03;;;;;;;26.53;18.17;;;;;;;12.66;56.02;96547.13;5013321;28;20986;-73
2024/03/04 05:25:29;;;;;;;24.80;18.20;;;;;;;12.72;56.43;96549.03;5021442;28;20176;-70
2024/03/04 05:27:55;;;;;;;24.10;17.73;;;;;;;12.78;56.24;96544.03;5015716;28;20596;-70
2024/03/04 05:30:20;;;;;;;23.67;16.67;;;;;;;12.83;56.32;96541.69;5019322;28;20492;-69
2024/03/04 05:32:46;;;;;;;24.67;17.00;;;;;;;12.79;56.04;96549.09;5013205;28;20208;-70
2024/03/04 05:35:11;;;;;;;27.90;17.30;;;;;;;12.86;55.89;96546.53;5020745;28;20643;-71
2024/03/04 05:37:37;;;;;;;25.87;17.23;;;;;;;12.89;55.64;96554.91;5019069;28;20242;-70
2024/03/04 05:40:09;;;;;;;25.80;18.17;;;;;;;12.87;56.09;96561.31;5020114;28;20180;-71
2024/03/04 05:42:41;;;;;;;24.37;17.17;;;;;;;12.82;56.10;96564.50;5019367;28;20215;-69
2024/03/04 05:45:10;;;;;;;24.70;17.37;;;;;;;12.85;56.01;96568.59;5027545;28;20431;-71
2024/03/04 05:47:35;;;;;;;27.67;16.93;;;;;;;12.88;55.70;96562.97;5024194;28;20439;-71
2024/03/04 05:50:02;;;;;;;23.57;16.57;;;;;;;12.84;56.10;96570.41;5034493;28;20475;-70
2024/03/04 05:52:28;;;;;;;22.70;16.53;;;;;;;12.87;55.87;96571.84;5023192;28;20694;-71
2024/03/04 05:54:53;;;;;;;23.23;16.00;;;;;;;12.85;56.01;96587.00;5023684;28;20462;-69
2024/03/04 05:57:19;;;;;;;24.57;16.53;;;;;;;12.89;55.88;96591.72;5022764;28;20237;-69
2024/03/04 05:59:44;;;;;;;26.10;17.63;;;;;;;12.86;56.02;96597.34;5027056;28;20198;-71
2024/03/04 06:02:09;;;;;;;27.67;18.37;;;;;;;12.89;55.78;96593.53;5022525;28;20684;-72
2024/03/04 06:04:36;;;;;;;29.00;17.90;;;;;;;12.89;55.97;96590.91;5015674;28;20600;-71
2024/03/04 06:07:01;;;;;;;26.60;17.63;;;;;;;12.90;55.92;96598.63;5024754;28;20183;-71
2024/03/04 06:09:27;;;;;;;27.40;17.13;;;;;;;12.91;55.85;96588.91;5015674;28;20431;-71
2024/03/04 06:11:52;;;;;;;25.17;17.00;;;;;;;12.90;56.22;96600.41;5025392;28;20207;-70
2024/03/04 06:14:22;;;;;;;29.67;19.03;;;;;;;12.86;56.26;96607.03;5024244;28;20215;-70
2024/03/04 06:16:48;;;;;;;32.03;19.23;;;;;;;12.85;56.43;96610.69;5025246;28;20199;-68
2024/03/04 06:19:13;;;;;;;32.40;19.07;;;;;;;12.81;56.67;96604.16;5024890;28;20923;-69
2024/03/04 06:21:39;;;;;;;36.10;20.63;;;;;;;12.86;56.84;96607.84;5015762;28;20274;-68
2024/03/04 06:24:04;;;;;;;31.70;19.73;;;;;;;12.93;56.45;96613.22;5017143;28;20188;-70
2024/03/04 06:26:30;;;;;;;30.40;19.60;;;;;;;12.96;56.64;96606.75;5022933;28;20180;-69
2024/03/04 06:28:56;;;;;;;28.13;19.20;;;;;;;12.99;56.59;96612.47;5029466;28;20196;-69
2024/03/04 06:31:21;;;;;;;28.30;19.80;;;;;;;13.03;56.45;96613.75;5020730;28;20203;-69
2024/03/04 06:33:48;;;;;;;31.80;20.37;;;;;;;13.02;56.57;96609.47;5025145;28;20186;-70
2024/03/04 06:36:14;;;;;;;34.30;22.27;;;;;;;12.95;56.62;96616.47;5022255;28;21741;-69
2024/03/04 06:38:40;;;;;;;36.03;22.43;;;;;;;12.97;56.89;96621.53;5020771;28;20427;-70
2024/03/04 06:41:08;;;;;;;39.50;24.53;;;;;;;12.90;57.22;96629.34;5017608;28;20951;-70
2024/03/04 06:43:33;;;;;;;43.40;24.87;;;;;;;12.90;57.45;96630.19;5014229;28;20431;-69
2024/03/04 06:46:00;;;;;;;37.43;24.50;;;;;;;12.94;57.48;96635.88;5030423;28;20522;-70
2024/03/04 06:48:26;;;;;;;41.10;25.33;;;;;;;12.95;57.40;96636.69;5019247;28;20215;-69
2024/03/04 06:50:51;;;;;;;40.80;26.50;;;;;;;12.90;57.67;96639.88;5018172;28;21154;-69
2024/03/04 06:53:16;;;;;;;45.30;27.50;;;;;;;12.88;57.97;96647.94;5027427;28;20271;-69
2024/03/04 06:55:42;;;;;;;42.07;25.20;;;;;;;12.86;58.17;96647.31;5035635;28;20291;-69
2024/03/04 06:58:07;;;;;;;45.97;27.83;;;;;;;12.85;58.38;96644.88;5029465;28;20188;-69
2024/03/04 07:00:33;;;;;;;44.23;27.27;;;;;;;12.90;58.48;96660.91;5035783;28;20208;-69
2024/03/04 07:02:59;;;;;;;62.03;35.73;;;;;;;12.97;57.96;96661.84;5027918;28;20270;-70
2024/03/04 07:05:24;;;;;;;45.23;27.83;;;;;;;12.99;58.13;96651.13;5030168;28;20175;-68
2024/03/04 07:07:49;;;;;;;44.70;28.73;;;;;;;12.96;58.67;96657.56;5038147;28;20179;-69
2024/03/04 07:10:15;;;;;;;40.50;26.00;;;;;;;13.00;58.56;96650.94;5029834;28;20199;-71
2024/03/04 07:12:40;;;;;;;50.30;29.17;;;;;;;13.03;58.40;96663.72;5021653;28;20208;-70
2024/03/04 07:15:06;;;;;;;45.97;28.43;;;;;;;13.06;58.51;96666.00;5033729;28;20234;-70
2024/03/04 07:17:32;;;;;;;48.63;27.20;;;;;;;13.10;58.88;96660.38;5030002;28;20708;-70
2024/03/04 07:19:57;;;;;;;49.73;28.23;;;;;;;13.11;58.69;96664.63;5027299;28;20183;-71
2024/03/04 07:22:23;;;;;;;47.90;28.80;;;;;;;13.14;58.73;96659.00;5027311;28;20229;-69
2024/03/04 07:24:48;;;;;;;49.97;29.37;;;;;;;13.14;58.63;96661.63;5022465;28;20189;-70
2024/03/04 07:27:14;;;;;;;43.87;26.60;;;;;;;13.17;58.62;96661.28;5020323;28;20736;-69
2024/03/04 07:29:40;;;;;;;50.00;29.07;;;;;;;13.15;58.90;96665.91;5026271;28;20238;-71
2024/03/04 07:32:06;;;;;;;47.03;27.13;;;;;;;13.17;58.90;96666.53;5017999;28;20208;-71
2024/03/04 07:34:32;;;;;;;48.70;28.50;;;;;;;13.14;58.94;96672.16;5026183;28;20196;-69
2024/03/04 07:36:58;;;;;;;47.50;26.90;;;;;;;13.21;58.91;96678.34;5021524;28;20447;-71
2024/03/04 07:39:23;;;;;;;49.30;29.13;;;;;;;13.24;58.84;96682.41;5029115;28;20215;-70
2024/03/04 07:41:50;;;;;;;46.20;27.83;;;;;;;13.29;58.95;96680.06;5028400;28;20246;-70
2024/03/04 07:44:17;;;;;;;50.07;28.57;;;;;;;13.29;58.56;96680.06;5015910;28;20310;-69
2024/03/04 07:46:43;;;;;;;44.60;26.37;;;;;;;13.28;58.66;96689.75;5024034;28;20429;-70
2024/03/04 07:49:09;;;;;;;50.87;28.67;;;;;;;13.22;58.76;96687.88;5015477;28;20439;-70
2024/03/04 07:51:34;;;;;;;47.00;27.40;;;;;;;13.21;58.99;96683.59;5024804;28;20442;-70
2024/03/04 07:54:00;;;;;;;51.30;29.80;;;;;;;13.23;59.08;96691.31;5022307;28;20222;-69
2024/03/04 07:56:25;;;;;;;47.07;28.03;;;;;;;13.28;59.23;96695.03;5027524;28;20271;-70
2024/03/04 07:58:51;;;;;;;51.07;29.07;;;;;;;13.31;59.19;96694.66;5037245;28;20578;-69
2024/03/04 08:01:16;;;;;;;46.27;28.20;;;;;;;13.34;59.02;96694.31;5027428;28;20314;-70
2024/03/04 08:03:42;;;;;;;43.00;26.07;;;;;;;13.41;59.04;96706.75;5029749;28;20568;-69
2024/03/04 08:06:08;;;;;;;44.10;27.60;;;;;;;13.44;58.83;96707.19;5029448;28;20203;-69
2024/03/04 08:08:33;;;;;;;41.80;26.70;;;;;;;13.51;59.03;96713.38;5036884;28;20184;-69
2024/03/04 08:10:59;;;;;;;42.30;24.93;;;;;;;13.55;58.74;96711.19;5034484;28;20442;-70
2024/03/04 08:13:25;;;;;;;40.37;24.80;;;;;;;13.54;58.35;96714.03;5031041;28;20199;-69
2024/03/04 08:15:52;;;;;;;41.27;25.03;;;;;;;13.52;58.50;96717.66;5032859;28;20207;-69
2024/03/04 08:18:17;;;;;;;45.17;26.77;;;;;;;13.55;58.43;96727.00;5026152;28;20422;-70
2024/03/04 08:20:43;;;;;;;45.57;25.73;;;;;;;13.54;58.49;96728.00;5021986;28;20433;-68
2024/03/04 08:23:09;;;;;;;40.37;25.07;;;;;;;13.56;58.70;96727.81;5028445;28;20734;-68
2024/03/04 08:25:34;;;;;;;42.37;25.67;;;;;;;13.56;58.30;96733.91;5015697;28;20641;-69
2024/03/04 08:28:00;;;;;;;40.23;25.53;;;;;;;13.55;58.49;96734.06;5015950;28;20222;-68
2024/03/04 08:30:25;;;;;;;44.37;25.20;;;;;;;13.51;58.09;96728.34;5026142;28;20720;-68
2024/03/04 08:32:53;;;;;;;43.80;26.10;;;;;;;13.47;58.14;96741.06;4988246;28;20746;-68
2024/03/04 08:35:18;;;;;;;61.90;35.70;;;;;;;13.45;58.70;96734.34;5022388;28;20652;-69
2024/03/04 08:37:44;;;;;;;46.07;27.47;;;;;;;13.48;58.82;96734.81;5022007;28;20465;-69
2024/03/04 08:40:12;;;;;;;54.63;33.70;;;;;;;13.52;58.52;96737.88;5016120;28;20189;-68
2024/03/04 08:42:39;;;;;;;50.00;30.10;;;;;;;13.54;58.64;96741.16;5032489;28;20287;-68
2024/03/04 08:45:06;;;;;;;47.83;30.17;;;;;;;13.53;58.65;96750.06;5022728;28;20532;-69
2024/03/04 08:47:31;;;;;;;51.23;32.00;;;;;;;13.54;58.22;96743.00;5015482;28;20803;-69
2024/03/04 08:49:56;;;;;;;56.33;37.33;;;;;;;13.58;58.56;96758.22;5018457;28;20424;-70
2024/03/04 08:52:23;;;;;;;50.40;31.53;;;;;;;13.60;58.82;96756.25;5029989;28;20305;-70
2024/03/04 08:54:48;;;;;;;43.00;25.97;;;;;;;13.55;58.48;96760.38;5027356;28;20577;-70
2024/03/04 08:57:13;;;;;;;43.70;26.67;;;;;;;13.56;58.42;96770.75;5024586;28;20458;-68
2024/03/04 08:59:40;;;;;;;45.00;26.53;;;;;;;13.55;58.60;96765.66;5015432;28;20858;-69
2024/03/04 09:02:06;;;;;;;44.93;26.70;;;;;;;13.56;58.69;96769.91;5031503;28;20229;-69
2024/03/04 09:04:32;;;;;;;43.77;26.30;;;;;;;13.62;58.63;96769.22;5016510;28;20450;-68
2024/03/04 09:06:59;;;;;;;44.37;26.03;;;;;;;13.62;58.38;96767.38;5027107;28;20464;-70
2024/03/04 09:09:25;;;;;;;60.67;39.97;;;;;;;13.63;58.35;96773.47;5020122;28;20832;-69
2024/03/04 09:11:52;;;;;;;47.43;30.83;;;;;;;13.67;58.51;96780.81;5021396;28;20537;-70
2024/03/04 09:14:17;;;;;;;48.80;30.37;;;;;;;13.73;58.28;96775.84;5016123;28;20470;-68
2024/03/04 09:16:43;;;;;;;56.87;35.50;;;;;;;13.77;58.38;96783.19;5021783;28;20518;-69
2024/03/04 09:19:10;;;;;;;51.90;30.97;;;;;;;13.79;58.44;96775.09;5025755;28;20192;-68
2024/03/04 09:21:36;;;;;;;54.20;31.20;;;;;;;13.98;58.98;96774.53;5018089;28;20214;-69
2024/03/04 09:24:01;;;;;;;51.87;30.73;;;;;;;14.07;58.30;96772.59;5023791;28;20496;-71
2024/03/04 09:26:27;;;;;;;42.93;26.53;;;;;;;14.08;57.37;96779.50;5015260;28;20657;-69
2024/03/04 09:28:52;;;;;;;48.80;28.43;;;;;;;14.03;57.20;96787.16;5021136;28;20249;-70
2024/03/04 09:31:18;;;;;;;53.47;34.67;;;;;;;14.04;57.24;96782.69;5018350;28;20200;-70
2024/03/04 09:33:44;;;;;;;51.93;31.90;;;;;;;14.00;57.10;96786.69;5021240;28;20184;-71
2024/03/04 09:36:09;;;;;;;47.23;27.83;;;;;;;13.95;56.78;96785.44;5025114;28;20193;-70
2024/03/04 09:38:35;;;;;;;48.60;31.50;;;;;;;13.93;57.39;96781.34;5017835;28;20926;-70
2024/03/04 09:41:02;;;;;;;46.67;28.23;;;;;;;13.89;57.44;96786.16;5022389;28;20208;-70
2024/03/04 09:43:28;;;;;;;55.20;30.83;;;;;;;13.84;57.32;96783.28;5018879;28;20207;-69
2024/03/04 09:45:53;;;;;;;58.50;30.77;;;;;;;13.80;57.38;96792.53;5030490;28;20457;-69
2024/03/04 09:48:21;;;;;;;49.53;31.83;;;;;;;13.81;57.51;96788.91;5018601;28;20522;-70
2024/03/04 09:50:47;;;;;;;53.40;30.13;;;;;;;13.76;57.17;96796.53;5025937;28;20191;-71
2024/03/04 09:53:15;;;;;;;51.43;29.70;;;;;;;13.72;57.43;96796.06;5022563;28;20427;-70
2024/03/04 09:55:40;;;;;;;55.70;33.43;;;;;;;13.75;57.53;96797.53;5027995;28;20275;-70
2024/03/04 09:58:07;;;;;;;48.97;30.00;;;;;;;13.71;57.52;96788.38;5033749;28;20568;-71
2024/03/04 10:00:33;;;;;;;61.23;34.23;;;;;;;13.71;57.93;96791.00;5036328;28;20176;-70
2024/03/04 10:02:59;;;;;;;55.30;31.67;;;;;;;13.75;57.39;96794.88;5025486;28;20491;-69
2024/03/04 10:05:24;;;;;;;62.30;38.00;;;;;;;13.72;57.55;96790.00;5039552;28;20501;-70
2024/03/04 10:07:51;;;;;;;68.13;40.97;;;;;;;13.77;57.79;96791.09;5038918;28;20188;-71
2024/03/04 10:10:16;;;;;;;62.80;37.03;;;;;;;13.84;57.73;96793.81;5029854;28;20204;-69
2024/03/04 10:12:42;;;;;;;57.67;33.17;;;;;;;13.84;57.58;96796.44;5031198;28;20457;-70
2024/03/04 10:15:11;;;;;;;59.53;35.17;;;;;;;13.83;57.56;96795.59;5029363;28;20265;-71
2024/03/04 10:17:38;;;;;;;61.80;36.20;;;;;;;13.88;57.42;96796.88;5034349;28;20757;-70
2024/03/04 10:20:05;;;;;;;63.70;35.90;;;;;;;13.91;57.09;96799.97;5030056;28;20521;-71
2024/03/04 10:22:34;;;;;;;53.40;32.40;;;;;;;13.92;56.62;96796.34;5034478;28;20471;-70
2024/03/04 10:25:04;;;;;;;91.00;46.97;;;;;;;13.94;56.59;96796.97;5035949;28;20430;-71
2024/03/04 10:27:34;;;;;;;75.30;41.13;;;;;;;13.89;56.44;96804.59;5027906;28;20434;-70
2024/03/04 10:30:11;;;;;;;62.23;34.30;;;;;;;13.86;56.41;96802.31;5036639;28;20435;-71
2024/03/04 10:32:57;;;;;;;57.43;33.80;;;;;;;13.93;56.67;96808.50;5026187;28;20449;-70
2024/03/04 10:35:24;;;;;;;53.10;29.43;;;;;;;13.95;56.60;96810.94;5024759;28;20465;-71
2024/03/04 10:37:50;;;;;;;51.77;30.40;;;;;;;13.95;56.81;96805.69;5028511;28;20438;-70
2024/03/04 10:40:20;;;;;;;57.03;31.80;;;;;;;13.96;56.48;96818.69;5036388;28;20425;-71
2024/03/04 10:42:46;;;;;;;58.93;33.00;;;;;;;13.82;56.72;96806.34;5026026;28;20239;-70
2024/03/04 10:45:12;;;;;;;57.50;31.20;;;;;;;13.79;56.76;96809.34;5030908;28;20457;-71
2024/03/04 10:47:39;;;;;;;71.63;36.30;;;;;;;13.81;56.90;96810.78;5028572;28;20430;-70
2024/03/04 10:50:05;;;;;;;70.93;38.50;;;;;;;13.82;57.14;96811.59;5033588;28;20512;-71
2024/03/04 10:52:31;;;;;;;58.03;32.63;;;;;;;13.80;57.12;96808.34;5030299;28;20533;-71
2024/03/04 10:54:56;;;;;;;97.90;54.10;;;;;;;13.85;57.13;96811.25;5032692;28;20530;-70
2024/03/04 10:57:26;;;;;;;66.47;39.07;;;;;;;13.90;57.23;96808.88;5020933;28;20808;-71
2024/03/04 11:00:09;;;;;;;64.70;36.60;;;;;;;13.85;57.14;96805.97;5033874;28;20204;-71
2024/03/04 11:02:36;;;;;;;64.13;35.97;;;;;;;13.95;57.30;96809.16;5025888;28;20523;-71
2024/03/04 11:05:05;;;;;;;58.37;31.80;;;;;;;14.00;56.92;96808.59;5027490;28;20431;-73
2024/03/04 11:07:32;;;;;;;53.37;31.20;;;;;;;14.02;57.04;96813.66;5028081;28;20871;-69
2024/03/04 11:10:00;;;;;;;57.73;31.53;;;;;;;14.01;56.86;96814.66;5035465;28;20544;-70